KCFV - Coffeyville, Kansas, USA
Distance from station: ENE 93mi, 150km
Updated: Sun, 05-Jul-2020 2:52am PDT
Mist, Clear
Mist, Clear
 Wind from N
Wind: N 3 mph , 6 km/h
Temperature: 70°F , 21°C
Dew Point: 68°F , 20°C
Humidity: 94%
Barometer: 29.93 inHg , 1013.5 hPa
Summary: Mist
Clouds: Clear
Visibility: 5 miles , 8 km
2020/07/05 09:52 KCFV 050952Z AUTO 35003KT 5SM BR CLR 21/20 A2993 RMK AO2 SLP126 T02110200
KIDP - Independence, Kansas, USA
Distance from station: NE 86mi, 138km
Updated: Sun, 05-Jul-2020 2:55am PDT
Mist, Clear
Mist, Clear
 Wind from NE
Wind: NE 3 mph , 6 km/h
Temperature: 72°F , 22°C
Dew Point: 70°F , 21°C
Humidity: 94%
Barometer: 29.94 inHg , 1013.9 hPa
Summary: Mist
Clouds: Clear
Visibility: 7 miles , 11 km
2020/07/05 09:55 KIDP 050955Z AUTO 05003KT 7SM BR CLR 22/21 A2994 RMK AO2 T02170208
 
KIAB - Mcconnell Afb, Kansas, USA
Distance from station: N 84mi, 135km
Updated: Sun, 05-Jul-2020 2:56am PDT
Clear
Clear
 Wind from E
Wind: E 5 mph , 7 km/h
Temperature: 73°F , 23°C
Dew Point: 66°F , 19°C
Humidity: 78%
Barometer: 29.95 inHg , 1014.2 hPa
Clouds: Clear
Visibility: 10 miles , 16 km
2020/07/05 09:56 KIAB 050956Z AUTO 09004KT 10SM CLR 23/19 A2995 RMK AO2 SLP129 T02320193 $
KICT - Wichita, Kansas, USA
Distance from station: NNW 88mi, 142km
Updated: Sun, 05-Jul-2020 2:53am PDT
Clear
Clear
 Wind from E
Wind: E 5 mph , 7 km/h
Temperature: 73°F , 23°C
Dew Point: 68°F , 20°C
Humidity: 83%
Barometer: 29.95 inHg , 1014.2 hPa
Clouds: Clear
Visibility: 9 miles , 14 km
2020/07/05 09:53 KICT 050953Z 09004KT 9SM CLR 23/20 A2995 RMK AO2 SLP125 T02330200
 
KAAO - Wichita/Jabara, Kansas, USA
Distance from station: N 93mi, 149km
Updated: Sun, 05-Jul-2020 2:54am PDT
Mist, Clear
Mist, Clear
 Wind from ENE
Wind: ENE 5 mph , 7 km/h
Temperature: 70°F , 21°C
Dew Point: 68°F , 20°C
Humidity: 94%
Barometer: 29.95 inHg , 1014.2 hPa
Summary: Mist
Clouds: Clear
Visibility: 4 miles , 6 km
2020/07/05 09:54 KAAO 050954Z AUTO 07004KT 4SM BR CLR 21/20 A2995 RMK AO2 SLP129 T02060200 $
KWLD - Winfield/Arkansa, Kansas, USA
Distance from station: N 52mi, 84km
Updated: Sun, 05-Jul-2020 2:54am PDT
Clear
Clear
 Wind from E
Wind: E 5 mph , 7 km/h
Temperature: 72°F , 22°C
Dew Point: 70°F , 21°C
Humidity: 94%
Barometer: 29.95 inHg , 1014.2 hPa
Clouds: Clear
Visibility: 10 miles , 16 km
2020/07/05 09:54 KWLD 050954Z AUTO 08004KT 10SM CLR 22/21 A2995 RMK AO2 SLP129 T02220206
 
KAVK - Alva, Oklahoma, USA
Distance from station: WNW 94mi, 152km
Updated: Sun, 05-Jul-2020 3:15am PDT
Overcast
Overcast
 Wind from NE
Wind: NE 5 mph , 7 km/h
Temperature: 73°F , 23°C
Dew Point: 68°F , 20°C
Humidity: 83%
Barometer: 29.95 inHg , 1014.2 hPa
Clouds: Overcast
Visibility: 10 miles , 16 km
Cloud details: Overcast 7500 ft
2020/07/05 10:15 KAVK 051015Z AUTO 05004KT 10SM OVC075 23/20 A2995 RMK AO2 PWINO TSNO
KBVO - Bartlesville, Oklahoma, USA
Distance from station: ENE 61mi, 98km
Updated: Sun, 05-Jul-2020 2:53am PDT
Mist, Few clouds
Mist, Few clouds
 Wind from calm
Wind: Calm
Temperature: 70°F , 21°C
Dew Point: 70°F , 21°C
Humidity: 100%
Barometer: 29.94 inHg , 1013.9 hPa
Summary: Mist
Clouds: Few Clouds
Visibility: 3 miles , 5 km
Cloud details: Few Clouds 500 ft
2020/07/05 09:53 KBVO 050953Z AUTO 00000KT 3SM BR FEW005 21/21 A2994 RMK AO2 SLP126 T02060206
 
KBKN - Blackwell, Oklahoma, USA
Distance from station: NW 29mi, 47km
Updated: Sun, 05-Jul-2020 3:15am PDT

 Wind from NE
Wind: NE 5 mph , 7 km/h
Temperature: 72°F , 22°C
Dew Point: 72°F , 22°C
Humidity: 100%
Barometer: 29.94 inHg , 1013.9 hPa
Visibility: 10 miles , 16 km
2020/07/05 10:15 KBKN 051015Z AUTO 05004KT 10SM 22/22 A2994 RMK AO2
KGCM - Claremore, Oklahoma, USA
Distance from station: E 86mi, 138km
Updated: Sun, 05-Jul-2020 3:15am PDT
Mist, Clear
Mist, Clear
 Wind from NE
Wind: NE 3 mph , 6 km/h
Temperature: 68°F , 20°C
Dew Point: 64°F , 18°C
Humidity: 88%
Barometer: 29.94 inHg , 1013.9 hPa
Summary: Mist
Clouds: Clear
Visibility: 4 miles , 6 km
2020/07/05 10:15 KGCM 051015Z AUTO 05003KT 4SM BR CLR 20/18 A2994 RMK AO2
 
KCQB - Chandler, Oklahoma, USA
Distance from station: SSE 50mi, 80km
Updated: Sun, 05-Jul-2020 2:55am PDT
Mist, Clear
Mist, Clear
 Wind from E
Wind: E 3 mph , 6 km/h
Temperature: 72°F , 22°C
Dew Point: 70°F , 21°C
Humidity: 94%
Barometer: 29.92 inHg , 1013.2 hPa
Summary: Mist
Clouds: Clear
Visibility: 3 1/2 miles , 5.6 km
2020/07/05 09:55 KCQB 050955Z AUTO 08003KT 3 1/2SM BR CLR 22/21 A2992 RMK AO2 T02190212
KCUH - Cushing, Oklahoma, USA
Distance from station: SSE 35mi, 57km
Updated: Sun, 05-Jul-2020 3:15am PDT
Mist, Clear
Mist, Clear
 Wind from calm
Wind: Calm
Temperature: 72°F , 22°C
Dew Point: 70°F , 21°C
Humidity: 94%
Barometer: 29.91 inHg , 1012.9 hPa
Summary: Mist
Clouds: Clear
Visibility: 5 miles , 8 km
2020/07/05 10:15 KCUH 051015Z AUTO 00000KT 5SM BR CLR 22/21 A2991 RMK AO2 T02160210
 
KRQO - El Reno Muni, Oklahoma, USA
Distance from station: SW 85mi, 137km
Updated: Sun, 05-Jul-2020 3:15am PDT
Clear
Clear
 Wind from E
Wind: E 6 mph , 9 km/h
Temperature: 70°F , 21°C
Dew Point: 68°F , 20°C
Humidity: 94%
Barometer: 29.94 inHg , 1013.9 hPa
Clouds: Clear
Visibility: 10 miles , 16 km
2020/07/05 10:15 KRQO 051015Z AUTO 09005KT 10SM CLR 21/20 A2994 RMK AO2 LTG DSNT W T02130198
KEND - Enid/Vance Afb, Oklahoma, USA
Distance from station: W 50mi, 81km
Updated: Sun, 05-Jul-2020 2:56am PDT
Clear
Clear
 Wind from ENE
Wind: ENE 5 mph , 7 km/h
Temperature: 72°F , 22°C
Dew Point: 72°F , 22°C
Humidity: 100%
Barometer: 29.92 inHg , 1013.2 hPa
Clouds: Clear
Visibility: 10 miles , 16 km
2020/07/05 09:56 KEND 050956Z AUTO 06004KT 10SM CLR 22/22 A2992 RMK AO2 SLP117 T02230223 $
 
KWDG - Enid/Woodring, Oklahoma, USA
Distance from station: W 42mi, 67km
Updated: Sun, 05-Jul-2020 3:15am PDT
Clear
Clear
 Wind from ENE
Wind: ENE 7 mph , 11 km/h
Temperature: 72°F , 22°C
Dew Point: 68°F , 20°C
Humidity: 88%
Barometer: 29.92 inHg , 1013.2 hPa
Clouds: Clear
Visibility: 10 miles , 16 km
2020/07/05 10:15 KWDG 051015Z AUTO 06006KT 10SM CLR 22/20 A2992 RMK AO2
KGOK - Guthrie, Oklahoma, USA
Distance from station: SSW 44mi, 71km
Updated: Sun, 05-Jul-2020 2:53am PDT
Clear
Clear
 Wind from ESE
Wind: ESE 5 mph , 7 km/h
Temperature: 72°F , 22°C
Dew Point: 70°F , 21°C
Humidity: 94%
Barometer: 29.91 inHg , 1012.9 hPa
Clouds: Clear
Visibility: 8 miles , 13 km
2020/07/05 09:53 KGOK 050953Z AUTO 12004KT 8SM CLR 22/21 A2991 RMK AO2 SLP117 T02220211 $
 
KOUN - Norman/Westheime, Oklahoma, USA
Distance from station: SSW 84mi, 136km
Updated: Sun, 05-Jul-2020 2:55am PDT
Mist, Clear
Mist, Clear
 Wind from NE
Wind: NE 5 mph , 7 km/h
Temperature: 72°F , 22°C
Dew Point: 70°F , 21°C
Humidity: 94%
Barometer: 29.90 inHg , 1012.5 hPa
Summary: Mist
Clouds: Clear
Visibility: 3 1/2 miles , 5.6 km
2020/07/05 09:55 KOUN 050955Z AUTO 05004KT 3 1/2SM BR CLR 22/21 A2990 RMK AO2 T02200208
KOKC - Oklahoma City, Oklahoma, USA
Distance from station: SSW 78mi, 126km
Updated: Sun, 05-Jul-2020 2:52am PDT
Smoke, Few clouds
Smoke, Few clouds
 Wind from ENE
Wind: ENE 5 mph , 7 km/h
Temperature: 73°F , 23°C
Dew Point: 68°F , 20°C
Humidity: 83%
Barometer: 29.92 inHg , 1013.2 hPa
Summary: Smoke
Clouds: Few Clouds
Visibility: 6 miles , 10 km
Cloud details: Few Clouds 25000 ft
2020/07/05 09:52 KOKC 050952Z 07004KT 6SM FU FEW250 23/20 A2992 RMK AO2 SLP113 T02330200 $
 
KPWA - Okla City/Wiley, Oklahoma, USA
Distance from station: SSW 70mi, 113km
Updated: Sun, 05-Jul-2020 2:53am PDT
Haze, Clear
Haze, Clear
 Wind from E
Wind: E 6 mph , 9 km/h
Temperature: 75°F , 24°C
Dew Point: 72°F , 22°C
Humidity: 89%
Barometer: 29.91 inHg , 1012.9 hPa
Summary: Haze
Clouds: Clear
Visibility: 3 miles , 5 km
2020/07/05 09:53 KPWA 050953Z AUTO 08005KT 3SM HZ CLR 24/22 A2991 RMK AO2 SLP110 T02440217
KRCE - Okla City/Page, Oklahoma, USA
Distance from station: SW 78mi, 126km
Updated: Sun, 05-Jul-2020 3:15am PDT

 Wind from ENE
Wind: ENE 5 mph , 7 km/h
Temperature: 73°F , 23°C
Dew Point: 68°F , 20°C
Humidity: 83%
Barometer: 29.92 inHg , 1013.2 hPa
Visibility: 7 miles , 11 km
2020/07/05 10:15 KRCE 051015Z AUTO 07004KT 7SM 23/20 A2992 RMK AO2
 
KOKM - Okmulgee, Oklahoma, USA
Distance from station: SE 79mi, 127km
Updated: Sun, 05-Jul-2020 3:15am PDT
Mist, Clear
Mist, Clear
 Wind from NE
Wind: NE 6 mph , 9 km/h
Temperature: 72°F , 22°C
Dew Point: 72°F , 22°C
Humidity: 100%
Barometer: 29.91 inHg , 1012.9 hPa
Summary: Mist
Clouds: Clear
Visibility: 2 1/2 miles , 4 km
2020/07/05 10:15 KOKM 051015Z AUTO 05005KT 2 1/2SM BR CLR 22/22 A2991 RMK AO2 T02210221
KPNC - Ponca City, Oklahoma, USA
Distance from station: N 22mi, 36km
Updated: Sun, 05-Jul-2020 2:53am PDT
Clear
Clear
 Wind from calm
Wind: Calm
Temperature: 72°F , 22°C
Dew Point: 68°F , 20°C
Humidity: 88%
Barometer: 29.93 inHg , 1013.5 hPa
Clouds: Clear
Visibility: 10 miles , 16 km
2020/07/05 09:53 KPNC 050953Z AUTO 00000KT 10SM CLR 22/20 A2993 RMK AO2 SLP120 T02220200
 
KSNL - Shawnee, Oklahoma, USA
Distance from station: S 74mi, 119km
Updated: Sun, 05-Jul-2020 2:55am PDT
Clear
Clear
 Wind from E
Wind: E 3 mph , 6 km/h
Temperature: 73°F , 23°C
Dew Point: 73°F , 23°C
Humidity: 100%
Barometer: 29.92 inHg , 1013.2 hPa
Clouds: Clear
Visibility: 7 miles , 11 km
2020/07/05 09:55 KSNL 050955Z AUTO 08003KT 7SM CLR 23/23 A2992 RMK AO2 T02270227
KSWO - Stillwater, Oklahoma, USA
Distance from station: S 17mi, 28km
Updated: Sun, 05-Jul-2020 2:53am PDT
Clear
Clear
 Wind from NNE
Wind: NNE 3 mph , 6 km/h
Temperature: 73°F , 23°C
Dew Point: 70°F , 21°C
Humidity: 89%
Barometer: 29.91 inHg , 1012.9 hPa
Clouds: Clear
Visibility: 10 miles , 16 km
2020/07/05 09:53 KSWO 050953Z AUTO 03003KT 10SM CLR 23/21 A2991 RMK AO2 SLP114 T02280206
 
KTIK - Tinker Afb, Oklahoma, USA
Distance from station: SSW 72mi, 115km
Updated: Sun, 05-Jul-2020 2:56am PDT
Clear
Clear
 Wind from calm
Wind: Calm
Temperature: 73°F , 23°C
Dew Point: 72°F , 22°C
Humidity: 94%
Barometer: 29.92 inHg , 1013.2 hPa
Clouds: Clear
Visibility: 7 miles , 11 km
2020/07/05 09:56 KTIK 050956Z AUTO 00000KT 7SM CLR 23/22 A2992 RMK AO2 SLP123 T02250221
KTUL - Tulsa, Oklahoma, USA
Distance from station: ESE 65mi, 105km
Updated: Sun, 05-Jul-2020 2:53am PDT
Mist, Clear
Mist, Clear
 Wind from N
Wind: N 3 mph , 6 km/h
Temperature: 72°F , 22°C
Dew Point: 72°F , 22°C
Humidity: 100%
Barometer: 29.90 inHg , 1012.5 hPa
Summary: Mist
Clouds: Clear
Visibility: 3 miles , 5 km
2020/07/05 09:53 KTUL 050953Z 35003KT 3SM BR CLR 22/22 A2990 RMK AO2 SLP117 T02220217 $

Metar display script from Saratoga-Weather.org